Airfield :
LOGIN :

Register | Disclaimer

   EN    FR    IT 

 










Legend :    VFR   Marginal VFR   IFR   Intensive IFR   Very Intensive IFR
Visi :
Ceiling :
>= 8 km
>= 3000ft
5 to 8 km
1000 to 3000 ft
1500m to 5 km
500 to 1000 ft
800 to 1500m
200 to 500 ft
< 800m
< 200 ft
Symbols :   Thunderstorms  Fog  Heavy snow  Heavy precipitations  Wind > 20 kt
SIGMETs :     Misc.  Thunderstorms  Icing  Turbulence  Mountain Waves  Volcanic Ashes






- Airport Elevation : 3 ft
- IATA code : EME


EDWE - Emden

CURRENT METAR :
  • 282020Z AUTO 16003KT 120V190 0650 R07/0900D // VV/// 07/07 Q1012

EXPIRED METARs :
  • 281950Z AUTO 18003KT 0900 R07/1200D // VV/// 07/07 Q1012
  • 281920Z AUTO 16003KT 2000 // BKN002/// OVC005/// 07/07 Q1012
  • 281850Z AUTO 16003KT 130V200 3700 // OVC002/// 07/07 Q1012
  • 281820Z AUTO 16003KT 130V200 5000 // OVC002/// 07/07 Q1011

Expired Forecast.



MET'MAP, your aeronautical weather chart ! - Copyright ORBIFLY December 2007 - Disclaimer

ORBIFLY MET'MAP TEAM :

Programming & Development : Alexandra Zaïnal
Original concept : Baudouin d'Aumeries
Technical & hardware support : Manuel Goepfert
Assistance : Marc-Olivier Méhu




SOURCES & CREDITS :

   NOAA